Weaverland, Pennsylvania
Current Conditions -  °F | °C
As of 1:15 PM on Tuesday 21 Oct 2014 (Local Time) from KMQS Reporting Station
Few Clouds Few Clouds  
Wind Chill: 63°   Ceiling: Unl
Heat Index: 63°   Visibility: 10mi
Dew Point: 48°   Wind: 5mph
Humidity: 59%   Direction: 340°NNW
Pressure: 29.85"   Gusts: NA
Location:  40.1386°N, 76.0187°W
Report Text: KMQS 211715Z AUTO 34004KT 10SM FEW035 17/09 A2985 RMK AO2
Loading
Personal Weather Stations






























Interactive Weather Map
Tropical Storm Tracking
New forecast layout! Learn more

10-Day Weather Forecast

Advertisements
Track Severe Weather on mobile